Airfield :
LOGIN :

Register | Disclaimer

   EN    FR    IT 

 










Legend :    VFR   Marginal VFR   IFR   Intensive IFR   Very Intensive IFR
Visi :
Ceiling :
>= 8 km
>= 3000ft
5 to 8 km
1000 to 3000 ft
1500m to 5 km
500 to 1000 ft
800 to 1500m
200 to 500 ft
< 800m
< 200 ft
Symbols :   Thunderstorms  Fog  Heavy snow  Heavy precipitations  Wind > 20 kt
SIGMETs :     Misc.  Thunderstorms  Icing  Turbulence  Mountain Waves  Volcanic Ashes







- Airport Elevation : 3 ft
- IATA code : LWR


EHLW - Leuuwarden Air Base

CURRENT METAR :
  • 260408Z AUTO 23010KT 200V260 8000 BR BKN034 OVC038 13/11 Q1012 BLU

EXPIRED METARs :
  • 260355Z AUTO 22007KT 180V240 6000 BR OVC040 12/11 Q1012 WHT
  • 260325Z AUTO 21007KT 6000 BR OVC047 11/10 Q1012 WHT
  • 260255Z AUTO 21006KT 7000 BR SCT069 BKN075 OVC130 10/09 Q1012 WHT
  • 260225Z AUTO 21006KT 9999 FEW085 OVC130 10/09 Q1013 BLU
  • 260155Z AUTO 22007KT 9999 FEW090 OVC100 10/08 Q1013 BLU
  • 260125Z AUTO 21006KT 9999 FEW081 BKN090 OVC095 10/08 Q1013 BLU

TAF TAF EHLW
Valid from the 26 at 01:00 until the 26 at 13:00 UTC


260051Z 2601/2613 21006KT 7000 BKN070
BECMG 2603/2605 22012KT 9999 BKN035 OVC050
PROB40
TEMPO 2606/2610 4500 -RADZ SCT008 BKN012 OVC025
TEMPO 2611/2613 23016G26KT
No reported NOTAMs for that airfield.



MET'MAP, your aeronautical weather chart ! - Copyright ORBIFLY December 2007 - Disclaimer

ORBIFLY MET'MAP TEAM :

Programming & Development : Alexandra Zaïnal
Concept & Development : Baudouin d'Aumeries
Co-Development & Prog : Marc-Olivier Méhu
Technical & hardware support : Manuel Goepfert

Contact : metmap@orbifly.com




SOURCES & CREDITS :

   NOAA